sensor_id;sensor_type;location;lat;lon;timestamp;temperature;humidity
40053;DHT22;25758;48.200;16.338;2024-03-22T00:01:10;12.10;99.90
40053;DHT22;25758;48.200;16.338;2024-03-22T00:03:36;12.10;99.90
40053;DHT22;25758;48.200;16.338;2024-03-22T00:06:01;12.10;99.90
40053;DHT22;25758;48.200;16.338;2024-03-22T00:08:28;12.20;99.90
40053;DHT22;25758;48.200;16.338;2024-03-22T00:10:53;12.10;99.90
40053;DHT22;25758;48.200;16.338;2024-03-22T00:13:19;12.10;99.90
40053;DHT22;25758;48.200;16.338;2024-03-22T00:15:44;12.10;99.90
40053;DHT22;25758;48.200;16.338;2024-03-22T00:18:11;12.10;99.90
40053;DHT22;25758;48.200;16.338;2024-03-22T00:20:36;12.10;99.90
40053;DHT22;25758;48.200;16.338;2024-03-22T00:23:02;12.10;99.90
40053;DHT22;25758;48.200;16.338;2024-03-22T00:25:28;12.10;99.90
40053;DHT22;25758;48.200;16.338;2024-03-22T00:27:54;12.20;99.90
40053;DHT22;25758;48.200;16.338;2024-03-22T00:30:20;12.10;99.90
40053;DHT22;25758;48.200;16.338;2024-03-22T00:32:46;12.10;99.90
40053;DHT22;25758;48.200;16.338;2024-03-22T00:35:13;12.20;99.90
40053;DHT22;25758;48.200;16.338;2024-03-22T00:37:38;12.10;99.90
40053;DHT22;25758;48.200;16.338;2024-03-22T00:40:05;12.10;99.90
40053;DHT22;25758;48.200;16.338;2024-03-22T00:42:31;12.20;99.90
40053;DHT22;25758;48.200;16.338;2024-03-22T00:44:58;12.10;99.90
40053;DHT22;25758;48.200;16.338;2024-03-22T00:47:23;12.10;99.90
40053;DHT22;25758;48.200;16.338;2024-03-22T00:49:49;12.10;99.90
40053;DHT22;25758;48.200;16.338;2024-03-22T00:52:15;12.10;99.90
40053;DHT22;25758;48.200;16.338;2024-03-22T00:54:41;12.10;99.90
40053;DHT22;25758;48.200;16.338;2024-03-22T00:57:06;12.10;99.90
40053;DHT22;25758;48.200;16.338;2024-03-22T00:59:32;12.20;99.90
40053;DHT22;25758;48.200;16.338;2024-03-22T01:01:58;12.20;99.90
40053;DHT22;25758;48.200;16.338;2024-03-22T01:04:23;12.20;99.90
40053;DHT22;25758;48.200;16.338;2024-03-22T01:06:49;12.20;99.90
40053;DHT22;25758;48.200;16.338;2024-03-22T01:09:15;12.30;99.90
40053;DHT22;25758;48.200;16.338;2024-03-22T01:11:40;12.20;99.90
40053;DHT22;25758;48.200;16.338;2024-03-22T01:14:06;12.30;99.90
40053;DHT22;25758;48.200;16.338;2024-03-22T01:16:32;12.20;99.90
40053;DHT22;25758;48.200;16.338;2024-03-22T01:18:57;12.20;99.90
40053;DHT22;25758;48.200;16.338;2024-03-22T01:21:23;12.20;99.90
40053;DHT22;25758;48.200;16.338;2024-03-22T01:23:51;12.20;99.90
40053;DHT22;25758;48.200;16.338;2024-03-22T01:26:17;12.30;99.90
40053;DHT22;25758;48.200;16.338;2024-03-22T01:28:43;12.30;99.90
40053;DHT22;25758;48.200;16.338;2024-03-22T01:31:09;12.30;99.90
40053;DHT22;25758;48.200;16.338;2024-03-22T01:33:34;12.20;99.90
40053;DHT22;25758;48.200;16.338;2024-03-22T01:36:00;12.20;99.90
40053;DHT22;25758;48.200;16.338;2024-03-22T01:38:25;12.10;99.90
40053;DHT22;25758;48.200;16.338;2024-03-22T01:40:51;12.20;99.90
40053;DHT22;25758;48.200;16.338;2024-03-22T01:43:16;12.20;99.90
40053;DHT22;25758;48.200;16.338;2024-03-22T01:45:42;12.20;99.90
40053;DHT22;25758;48.200;16.338;2024-03-22T01:48:08;12.10;99.90
40053;DHT22;25758;48.200;16.338;2024-03-22T01:50:34;12.20;99.90
40053;DHT22;25758;48.200;16.338;2024-03-22T01:53:01;12.20;99.90
40053;DHT22;25758;48.200;16.338;2024-03-22T01:55:27;12.10;99.90
40053;DHT22;25758;48.200;16.338;2024-03-22T01:57:54;12.20;99.90
40053;DHT22;25758;48.200;16.338;2024-03-22T02:00:21;12.20;99.90
40053;DHT22;25758;48.200;16.338;2024-03-22T02:02:46;12.20;99.90
40053;DHT22;25758;48.200;16.338;2024-03-22T02:05:13;12.20;99.90
40053;DHT22;25758;48.200;16.338;2024-03-22T02:07:40;12.20;99.90
40053;DHT22;25758;48.200;16.338;2024-03-22T02:10:06;12.20;99.90
40053;DHT22;25758;48.200;16.338;2024-03-22T02:12:33;12.10;99.90
40053;DHT22;25758;48.200;16.338;2024-03-22T02:14:59;12.10;99.90
40053;DHT22;25758;48.200;16.338;2024-03-22T02:17:25;12.10;99.90
40053;DHT22;25758;48.200;16.338;2024-03-22T02:19:50;12.20;99.90
40053;DHT22;25758;48.200;16.338;2024-03-22T02:22:16;12.20;99.90
40053;DHT22;25758;48.200;16.338;2024-03-22T02:24:41;12.00;99.90
40053;DHT22;25758;48.200;16.338;2024-03-22T02:27:07;12.00;99.90
40053;DHT22;25758;48.200;16.338;2024-03-22T02:29:33;12.00;99.90
40053;DHT22;25758;48.200;16.338;2024-03-22T02:31:58;12.00;99.90
40053;DHT22;25758;48.200;16.338;2024-03-22T02:34:24;12.10;99.90
40053;DHT22;25758;48.200;16.338;2024-03-22T02:36:50;12.10;99.90
40053;DHT22;25758;48.200;16.338;2024-03-22T02:39:15;12.10;99.90
40053;DHT22;25758;48.200;16.338;2024-03-22T02:41:41;12.10;99.90
40053;DHT22;25758;48.200;16.338;2024-03-22T02:44:06;12.10;99.90
40053;DHT22;25758;48.200;16.338;2024-03-22T02:46:32;12.10;99.90
40053;DHT22;25758;48.200;16.338;2024-03-22T02:48:58;12.10;99.90
40053;DHT22;25758;48.200;16.338;2024-03-22T02:51:23;12.10;99.90
40053;DHT22;25758;48.200;16.338;2024-03-22T02:53:49;12.10;99.90
40053;DHT22;25758;48.200;16.338;2024-03-22T02:56:15;12.10;99.90
40053;DHT22;25758;48.200;16.338;2024-03-22T02:58:40;12.10;99.90
40053;DHT22;25758;48.200;16.338;2024-03-22T03:01:06;12.10;99.90
40053;DHT22;25758;48.200;16.338;2024-03-22T03:03:32;12.10;99.90
40053;DHT22;25758;48.200;16.338;2024-03-22T03:05:57;12.00;99.90
40053;DHT22;25758;48.200;16.338;2024-03-22T03:08:23;12.00;99.90
40053;DHT22;25758;48.200;16.338;2024-03-22T03:10:48;12.00;99.90
40053;DHT22;25758;48.200;16.338;2024-03-22T03:13:14;12.10;99.90
40053;DHT22;25758;48.200;16.338;2024-03-22T03:15:40;12.10;99.90
40053;DHT22;25758;48.200;16.338;2024-03-22T03:18:05;12.10;99.90
40053;DHT22;25758;48.200;16.338;2024-03-22T03:20:31;12.00;99.90
40053;DHT22;25758;48.200;16.338;2024-03-22T03:22:56;12.10;99.90
40053;DHT22;25758;48.200;16.338;2024-03-22T03:25:25;12.10;99.90
40053;DHT22;25758;48.200;16.338;2024-03-22T03:27:51;12.00;99.90
40053;DHT22;25758;48.200;16.338;2024-03-22T03:30:17;12.10;99.90
40053;DHT22;25758;48.200;16.338;2024-03-22T03:32:43;12.10;99.90
40053;DHT22;25758;48.200;16.338;2024-03-22T03:35:08;12.10;99.90
40053;DHT22;25758;48.200;16.338;2024-03-22T03:37:34;12.00;99.90
40053;DHT22;25758;48.200;16.338;2024-03-22T03:39:59;12.00;99.90
40053;DHT22;25758;48.200;16.338;2024-03-22T03:42:25;12.00;99.90
40053;DHT22;25758;48.200;16.338;2024-03-22T03:44:51;12.00;99.90
40053;DHT22;25758;48.200;16.338;2024-03-22T03:47:16;12.00;99.90
40053;DHT22;25758;48.200;16.338;2024-03-22T03:49:42;11.90;99.90
40053;DHT22;25758;48.200;16.338;2024-03-22T03:52:07;12.00;99.90
40053;DHT22;25758;48.200;16.338;2024-03-22T03:54:33;12.00;99.90
40053;DHT22;25758;48.200;16.338;2024-03-22T03:56:59;12.00;99.90
40053;DHT22;25758;48.200;16.338;2024-03-22T03:59:24;11.90;99.90
40053;DHT22;25758;48.200;16.338;2024-03-22T04:01:50;11.90;99.90
40053;DHT22;25758;48.200;16.338;2024-03-22T04:04:15;11.80;99.90
40053;DHT22;25758;48.200;16.338;2024-03-22T04:06:41;11.90;99.90
40053;DHT22;25758;48.200;16.338;2024-03-22T04:09:09;11.90;99.90
40053;DHT22;25758;48.200;16.338;2024-03-22T04:11:35;11.90;99.90
40053;DHT22;25758;48.200;16.338;2024-03-22T04:14:00;11.80;99.90
40053;DHT22;25758;48.200;16.338;2024-03-22T04:16:26;11.80;99.90
40053;DHT22;25758;48.200;16.338;2024-03-22T04:18:53;11.80;99.90
40053;DHT22;25758;48.200;16.338;2024-03-22T04:21:18;11.80;99.90
40053;DHT22;25758;48.200;16.338;2024-03-22T04:23:44;11.80;99.90
40053;DHT22;25758;48.200;16.338;2024-03-22T04:26:10;11.90;99.90
40053;DHT22;25758;48.200;16.338;2024-03-22T04:28:36;11.80;99.90
40053;DHT22;25758;48.200;16.338;2024-03-22T04:31:06;11.90;99.90
40053;DHT22;25758;48.200;16.338;2024-03-22T04:33:34;11.80;99.90
40053;DHT22;25758;48.200;16.338;2024-03-22T04:36:00;11.80;99.90
40053;DHT22;25758;48.200;16.338;2024-03-22T04:38:27;11.80;99.90
40053;DHT22;25758;48.200;16.338;2024-03-22T04:40:53;11.80;99.90
40053;DHT22;25758;48.200;16.338;2024-03-22T04:43:23;11.70;99.90
40053;DHT22;25758;48.200;16.338;2024-03-22T04:45:49;11.70;99.90
40053;DHT22;25758;48.200;16.338;2024-03-22T04:48:21;11.70;99.90
40053;DHT22;25758;48.200;16.338;2024-03-22T04:50:47;11.80;99.90
40053;DHT22;25758;48.200;16.338;2024-03-22T04:53:16;11.80;99.90
40053;DHT22;25758;48.200;16.338;2024-03-22T04:55:43;11.80;99.90
40053;DHT22;25758;48.200;16.338;2024-03-22T04:58:12;11.70;99.90
40053;DHT22;25758;48.200;16.338;2024-03-22T05:00:38;11.80;99.90
40053;DHT22;25758;48.200;16.338;2024-03-22T05:03:04;11.80;99.90
40053;DHT22;25758;48.200;16.338;2024-03-22T05:05:29;11.80;99.90
40053;DHT22;25758;48.200;16.338;2024-03-22T05:07:55;11.80;99.90
40053;DHT22;25758;48.200;16.338;2024-03-22T05:10:21;11.80;99.90
40053;DHT22;25758;48.200;16.338;2024-03-22T05:12:46;11.70;99.90
40053;DHT22;25758;48.200;16.338;2024-03-22T05:15:12;11.80;99.90
40053;DHT22;25758;48.200;16.338;2024-03-22T05:17:37;11.80;99.90
40053;DHT22;25758;48.200;16.338;2024-03-22T05:20:05;11.80;99.90
40053;DHT22;25758;48.200;16.338;2024-03-22T05:22:31;11.80;99.90
40053;DHT22;25758;48.200;16.338;2024-03-22T05:24:57;11.80;99.90
40053;DHT22;25758;48.200;16.338;2024-03-22T05:27:22;11.70;99.90
40053;DHT22;25758;48.200;16.338;2024-03-22T05:29:48;11.80;99.90
40053;DHT22;25758;48.200;16.338;2024-03-22T05:32:14;11.80;99.90
40053;DHT22;25758;48.200;16.338;2024-03-22T05:34:40;11.80;99.90
40053;DHT22;25758;48.200;16.338;2024-03-22T05:37:05;11.70;99.90
40053;DHT22;25758;48.200;16.338;2024-03-22T05:39:31;11.80;99.90
40053;DHT22;25758;48.200;16.338;2024-03-22T05:41:57;11.80;99.90
40053;DHT22;25758;48.200;16.338;2024-03-22T05:44:22;11.70;99.90
40053;DHT22;25758;48.200;16.338;2024-03-22T05:46:48;11.80;99.90
40053;DHT22;25758;48.200;16.338;2024-03-22T05:49:14;11.80;99.90
40053;DHT22;25758;48.200;16.338;2024-03-22T05:51:39;11.70;99.90
40053;DHT22;25758;48.200;16.338;2024-03-22T05:54:05;11.80;99.90
40053;DHT22;25758;48.200;16.338;2024-03-22T05:56:31;11.80;99.90
40053;DHT22;25758;48.200;16.338;2024-03-22T05:58:56;11.80;99.90
40053;DHT22;25758;48.200;16.338;2024-03-22T06:01:22;11.80;99.90
40053;DHT22;25758;48.200;16.338;2024-03-22T06:03:47;11.80;99.90
40053;DHT22;25758;48.200;16.338;2024-03-22T06:06:13;11.90;99.90
40053;DHT22;25758;48.200;16.338;2024-03-22T06:08:39;11.80;99.90
40053;DHT22;25758;48.200;16.338;2024-03-22T06:11:09;11.80;99.90
40053;DHT22;25758;48.200;16.338;2024-03-22T06:13:34;11.80;99.90
40053;DHT22;25758;48.200;16.338;2024-03-22T06:16:01;11.90;99.90
40053;DHT22;25758;48.200;16.338;2024-03-22T06:18:27;11.80;99.90
40053;DHT22;25758;48.200;16.338;2024-03-22T06:20:53;11.80;99.90
40053;DHT22;25758;48.200;16.338;2024-03-22T06:23:23;11.90;99.90
40053;DHT22;25758;48.200;16.338;2024-03-22T06:25:52;12.00;99.90
40053;DHT22;25758;48.200;16.338;2024-03-22T06:28:18;12.00;99.90
40053;DHT22;25758;48.200;16.338;2024-03-22T06:30:43;11.90;99.90
40053;DHT22;25758;48.200;16.338;2024-03-22T06:33:09;11.90;99.90
40053;DHT22;25758;48.200;16.338;2024-03-22T06:35:35;12.00;99.90
40053;DHT22;25758;48.200;16.338;2024-03-22T06:38:00;11.90;99.90
40053;DHT22;25758;48.200;16.338;2024-03-22T06:40:28;12.00;99.90
40053;DHT22;25758;48.200;16.338;2024-03-22T06:42:54;11.90;99.90
40053;DHT22;25758;48.200;16.338;2024-03-22T06:45:19;11.90;99.90
40053;DHT22;25758;48.200;16.338;2024-03-22T06:47:45;11.90;99.90
40053;DHT22;25758;48.200;16.338;2024-03-22T06:50:11;11.90;99.90
40053;DHT22;25758;48.200;16.338;2024-03-22T06:52:37;11.90;99.90
40053;DHT22;25758;48.200;16.338;2024-03-22T06:55:03;11.90;99.90
40053;DHT22;25758;48.200;16.338;2024-03-22T06:57:29;12.00;99.90
40053;DHT22;25758;48.200;16.338;2024-03-22T06:59:54;11.90;99.90
40053;DHT22;25758;48.200;16.338;2024-03-22T07:02:20;12.00;99.90
40053;DHT22;25758;48.200;16.338;2024-03-22T07:04:46;12.00;99.90
40053;DHT22;25758;48.200;16.338;2024-03-22T07:07:11;12.10;99.90
40053;DHT22;25758;48.200;16.338;2024-03-22T07:09:37;12.10;99.90
40053;DHT22;25758;48.200;16.338;2024-03-22T07:12:03;12.20;99.90
40053;DHT22;25758;48.200;16.338;2024-03-22T07:14:29;12.20;99.90
40053;DHT22;25758;48.200;16.338;2024-03-22T07:16:54;12.20;99.90
40053;DHT22;25758;48.200;16.338;2024-03-22T07:19:20;12.20;99.90
40053;DHT22;25758;48.200;16.338;2024-03-22T07:21:47;12.30;99.90
40053;DHT22;25758;48.200;16.338;2024-03-22T07:24:12;12.30;99.90
40053;DHT22;25758;48.200;16.338;2024-03-22T07:26:38;12.20;99.90
40053;DHT22;25758;48.200;16.338;2024-03-22T07:29:03;12.20;99.90
40053;DHT22;25758;48.200;16.338;2024-03-22T07:31:29;12.30;99.90
40053;DHT22;25758;48.200;16.338;2024-03-22T07:33:55;12.30;99.90
40053;DHT22;25758;48.200;16.338;2024-03-22T07:36:21;12.30;99.90
40053;DHT22;25758;48.200;16.338;2024-03-22T07:38:47;12.30;99.90
40053;DHT22;25758;48.200;16.338;2024-03-22T07:41:14;12.30;99.90
40053;DHT22;25758;48.200;16.338;2024-03-22T07:43:40;12.40;99.90
40053;DHT22;25758;48.200;16.338;2024-03-22T07:46:06;12.40;99.90
40053;DHT22;25758;48.200;16.338;2024-03-22T07:48:31;12.40;99.90
40053;DHT22;25758;48.200;16.338;2024-03-22T07:51:01;12.40;99.90
40053;DHT22;25758;48.200;16.338;2024-03-22T07:53:27;12.30;99.90
40053;DHT22;25758;48.200;16.338;2024-03-22T07:55:52;12.40;99.90
40053;DHT22;25758;48.200;16.338;2024-03-22T07:58:19;12.40;99.90
40053;DHT22;25758;48.200;16.338;2024-03-22T08:00:45;12.40;99.90
40053;DHT22;25758;48.200;16.338;2024-03-22T08:03:16;12.50;99.90
40053;DHT22;25758;48.200;16.338;2024-03-22T08:05:42;12.50;99.90
40053;DHT22;25758;48.200;16.338;2024-03-22T08:08:08;12.50;99.90
40053;DHT22;25758;48.200;16.338;2024-03-22T08:10:33;12.50;99.90
40053;DHT22;25758;48.200;16.338;2024-03-22T08:13:00;12.50;99.90
40053;DHT22;25758;48.200;16.338;2024-03-22T08:15:29;12.60;99.90
40053;DHT22;25758;48.200;16.338;2024-03-22T08:17:55;12.70;99.90
40053;DHT22;25758;48.200;16.338;2024-03-22T08:20:23;12.70;99.90
40053;DHT22;25758;48.200;16.338;2024-03-22T08:22:49;12.70;99.90
40053;DHT22;25758;48.200;16.338;2024-03-22T08:25:14;12.70;99.90
40053;DHT22;25758;48.200;16.338;2024-03-22T08:27:46;12.80;99.90
40053;DHT22;25758;48.200;16.338;2024-03-22T08:30:12;12.80;99.90
40053;DHT22;25758;48.200;16.338;2024-03-22T08:32:38;12.90;99.90
40053;DHT22;25758;48.200;16.338;2024-03-22T08:35:04;12.90;99.90
40053;DHT22;25758;48.200;16.338;2024-03-22T08:37:30;13.00;99.90
40053;DHT22;25758;48.200;16.338;2024-03-22T08:39:56;13.00;99.90
40053;DHT22;25758;48.200;16.338;2024-03-22T08:42:21;13.10;99.90
40053;DHT22;25758;48.200;16.338;2024-03-22T08:44:47;13.20;99.90
40053;DHT22;25758;48.200;16.338;2024-03-22T08:47:12;13.20;99.90
40053;DHT22;25758;48.200;16.338;2024-03-22T08:49:39;13.30;99.90
40053;DHT22;25758;48.200;16.338;2024-03-22T08:52:07;13.40;99.90
40053;DHT22;25758;48.200;16.338;2024-03-22T08:54:33;13.40;99.90
40053;DHT22;25758;48.200;16.338;2024-03-22T08:56:59;13.50;99.90
40053;DHT22;25758;48.200;16.338;2024-03-22T08:59:25;13.50;99.90
40053;DHT22;25758;48.200;16.338;2024-03-22T09:01:51;13.50;99.90
40053;DHT22;25758;48.200;16.338;2024-03-22T09:04:17;13.50;99.90
40053;DHT22;25758;48.200;16.338;2024-03-22T09:06:43;13.60;99.90
40053;DHT22;25758;48.200;16.338;2024-03-22T09:09:08;13.50;99.90
40053;DHT22;25758;48.200;16.338;2024-03-22T09:11:34;13.60;99.90
40053;DHT22;25758;48.200;16.338;2024-03-22T09:14:00;13.60;99.90
40053;DHT22;25758;48.200;16.338;2024-03-22T09:16:25;13.70;99.90
40053;DHT22;25758;48.200;16.338;2024-03-22T09:18:51;13.80;99.90
40053;DHT22;25758;48.200;16.338;2024-03-22T09:21:17;13.80;99.90
40053;DHT22;25758;48.200;16.338;2024-03-22T09:23:42;13.90;99.90
40053;DHT22;25758;48.200;16.338;2024-03-22T09:26:08;13.90;99.90
40053;DHT22;25758;48.200;16.338;2024-03-22T09:28:34;14.00;99.90
40053;DHT22;25758;48.200;16.338;2024-03-22T09:31:06;13.90;99.90
40053;DHT22;25758;48.200;16.338;2024-03-22T09:33:35;14.00;99.90
40053;DHT22;25758;48.200;16.338;2024-03-22T09:36:01;14.00;99.90
40053;DHT22;25758;48.200;16.338;2024-03-22T09:38:26;14.10;99.90
40053;DHT22;25758;48.200;16.338;2024-03-22T09:40:52;14.20;99.90
40053;DHT22;25758;48.200;16.338;2024-03-22T09:43:23;14.30;99.90
40053;DHT22;25758;48.200;16.338;2024-03-22T09:45:52;14.50;99.90
40053;DHT22;25758;48.200;16.338;2024-03-22T09:48:21;14.50;99.90
40053;DHT22;25758;48.200;16.338;2024-03-22T09:50:47;14.60;99.90
40053;DHT22;25758;48.200;16.338;2024-03-22T09:55:39;14.70;99.90
40053;DHT22;25758;48.200;16.338;2024-03-22T09:58:09;14.80;99.90
40053;DHT22;25758;48.200;16.338;2024-03-22T10:00:35;14.90;99.90
40053;DHT22;25758;48.200;16.338;2024-03-22T10:03:01;14.90;99.90
40053;DHT22;25758;48.200;16.338;2024-03-22T10:05:29;15.10;99.90
40053;DHT22;25758;48.200;16.338;2024-03-22T10:07:55;15.10;99.90
40053;DHT22;25758;48.200;16.338;2024-03-22T10:10:21;15.10;99.90
40053;DHT22;25758;48.200;16.338;2024-03-22T10:12:47;15.10;99.90
40053;DHT22;25758;48.200;16.338;2024-03-22T10:15:13;15.00;99.90
40053;DHT22;25758;48.200;16.338;2024-03-22T10:17:39;15.00;99.90
40053;DHT22;25758;48.200;16.338;2024-03-22T10:20:06;15.00;99.90
40053;DHT22;25758;48.200;16.338;2024-03-22T10:22:58;15.20;99.90
40053;DHT22;25758;48.200;16.338;2024-03-22T10:25:28;15.20;99.90
40053;DHT22;25758;48.200;16.338;2024-03-22T10:27:54;15.30;99.90
40053;DHT22;25758;48.200;16.338;2024-03-22T10:30:22;15.30;99.90
40053;DHT22;25758;48.200;16.338;2024-03-22T10:32:49;15.30;99.90
40053;DHT22;25758;48.200;16.338;2024-03-22T10:35:15;15.40;99.90
40053;DHT22;25758;48.200;16.338;2024-03-22T10:37:41;15.50;99.90
40053;DHT22;25758;48.200;16.338;2024-03-22T10:40:07;15.60;99.90
40053;DHT22;25758;48.200;16.338;2024-03-22T10:42:37;15.60;99.90
40053;DHT22;25758;48.200;16.338;2024-03-22T10:45:04;15.60;99.90
40053;DHT22;25758;48.200;16.338;2024-03-22T10:47:32;15.60;99.30
40053;DHT22;25758;48.200;16.338;2024-03-22T10:50:08;15.60;99.60
40053;DHT22;25758;48.200;16.338;2024-03-22T10:52:58;15.70;99.70
40053;DHT22;25758;48.200;16.338;2024-03-22T10:55:32;15.80;99.80
40053;DHT22;25758;48.200;16.338;2024-03-22T10:57:58;15.90;99.00
40053;DHT22;25758;48.200;16.338;2024-03-22T11:00:32;16.00;99.30
40053;DHT22;25758;48.200;16.338;2024-03-22T11:02:58;16.00;99.40
40053;DHT22;25758;48.200;16.338;2024-03-22T11:08:00;16.10;99.10
40053;DHT22;25758;48.200;16.338;2024-03-22T11:10:29;16.30;99.40
40053;DHT22;25758;48.200;16.338;2024-03-22T11:13:00;16.50;98.30
40053;DHT22;25758;48.200;16.338;2024-03-22T11:15:25;16.70;98.80
40053;DHT22;25758;48.200;16.338;2024-03-22T11:17:51;16.80;97.60
40053;DHT22;25758;48.200;16.338;2024-03-22T11:20:16;16.80;97.30
40053;DHT22;25758;48.200;16.338;2024-03-22T11:22:42;16.80;98.10
40053;DHT22;25758;48.200;16.338;2024-03-22T11:25:08;16.70;97.60
40053;DHT22;25758;48.200;16.338;2024-03-22T11:27:34;16.70;97.20
40053;DHT22;25758;48.200;16.338;2024-03-22T11:30:00;16.60;97.40
40053;DHT22;25758;48.200;16.338;2024-03-22T11:32:25;16.60;96.70
40053;DHT22;25758;48.200;16.338;2024-03-22T11:34:51;16.70;97.20
40053;DHT22;25758;48.200;16.338;2024-03-22T11:37:17;16.60;96.60
40053;DHT22;25758;48.200;16.338;2024-03-22T11:39:43;16.60;97.40
40053;DHT22;25758;48.200;16.338;2024-03-22T11:42:09;16.50;97.50
40053;DHT22;25758;48.200;16.338;2024-03-22T11:44:37;16.70;96.90
40053;DHT22;25758;48.200;16.338;2024-03-22T11:47:04;16.90;97.40
40053;DHT22;25758;48.200;16.338;2024-03-22T11:49:30;17.00;96.80
40053;DHT22;25758;48.200;16.338;2024-03-22T11:51:58;17.00;97.00
40053;DHT22;25758;48.200;16.338;2024-03-22T11:54:24;17.20;96.40
40053;DHT22;25758;48.200;16.338;2024-03-22T11:56:50;17.20;96.30
40053;DHT22;25758;48.200;16.338;2024-03-22T11:59:19;17.30;95.40
40053;DHT22;25758;48.200;16.338;2024-03-22T12:01:46;17.30;95.00
40053;DHT22;25758;48.200;16.338;2024-03-22T12:04:12;17.20;95.50
40053;DHT22;25758;48.200;16.338;2024-03-22T12:06:44;17.30;95.40
40053;DHT22;25758;48.200;16.338;2024-03-22T12:09:13;17.30;95.20
40053;DHT22;25758;48.200;16.338;2024-03-22T12:11:40;17.40;95.00
40053;DHT22;25758;48.200;16.338;2024-03-22T12:14:06;17.50;94.70
40053;DHT22;25758;48.200;16.338;2024-03-22T12:16:31;17.50;94.20
40053;DHT22;25758;48.200;16.338;2024-03-22T12:18:57;17.60;93.40
40053;DHT22;25758;48.200;16.338;2024-03-22T12:21:23;17.60;94.60
40053;DHT22;25758;48.200;16.338;2024-03-22T12:23:49;17.60;94.50
40053;DHT22;25758;48.200;16.338;2024-03-22T12:26:15;17.80;93.70
40053;DHT22;25758;48.200;16.338;2024-03-22T12:28:40;17.70;93.40
40053;DHT22;25758;48.200;16.338;2024-03-22T12:31:08;17.70;93.60
40053;DHT22;25758;48.200;16.338;2024-03-22T12:33:33;17.70;93.30
40053;DHT22;25758;48.200;16.338;2024-03-22T12:35:59;17.60;93.10
40053;DHT22;25758;48.200;16.338;2024-03-22T12:38:25;17.60;93.10
40053;DHT22;25758;48.200;16.338;2024-03-22T12:40:51;17.60;93.60
40053;DHT22;25758;48.200;16.338;2024-03-22T12:43:17;17.50;93.40
40053;DHT22;25758;48.200;16.338;2024-03-22T12:45:42;17.40;93.60
40053;DHT22;25758;48.200;16.338;2024-03-22T12:48:08;17.40;92.90
40053;DHT22;25758;48.200;16.338;2024-03-22T12:50:34;17.40;92.90
40053;DHT22;25758;48.200;16.338;2024-03-22T12:53:00;17.30;92.30
40053;DHT22;25758;48.200;16.338;2024-03-22T12:55:26;17.20;92.60
40053;DHT22;25758;48.200;16.338;2024-03-22T12:57:54;17.40;93.30
40053;DHT22;25758;48.200;16.338;2024-03-22T13:00:19;17.40;93.10
40053;DHT22;25758;48.200;16.338;2024-03-22T13:02:45;17.40;93.00
40053;DHT22;25758;48.200;16.338;2024-03-22T13:05:12;17.50;93.10
40053;DHT22;25758;48.200;16.338;2024-03-22T13:07:37;17.50;92.80
40053;DHT22;25758;48.200;16.338;2024-03-22T13:10:04;17.50;92.20
40053;DHT22;25758;48.200;16.338;2024-03-22T13:12:29;17.40;93.00
40053;DHT22;25758;48.200;16.338;2024-03-22T13:14:57;17.40;92.60
40053;DHT22;25758;48.200;16.338;2024-03-22T13:17:23;17.30;92.60
40053;DHT22;25758;48.200;16.338;2024-03-22T13:19:49;17.30;92.70
40053;DHT22;25758;48.200;16.338;2024-03-22T13:22:15;17.20;93.10
40053;DHT22;25758;48.200;16.338;2024-03-22T13:24:47;17.30;92.80
40053;DHT22;25758;48.200;16.338;2024-03-22T13:27:13;17.30;92.90
40053;DHT22;25758;48.200;16.338;2024-03-22T13:29:39;17.30;92.50
40053;DHT22;25758;48.200;16.338;2024-03-22T13:32:05;17.30;92.80
40053;DHT22;25758;48.200;16.338;2024-03-22T13:34:36;17.30;93.10
40053;DHT22;25758;48.200;16.338;2024-03-22T13:37:02;17.20;92.70
40053;DHT22;25758;48.200;16.338;2024-03-22T13:39:29;17.20;92.90
40053;DHT22;25758;48.200;16.338;2024-03-22T13:41:56;17.30;92.80
40053;DHT22;25758;48.200;16.338;2024-03-22T13:44:21;17.20;92.90
40053;DHT22;25758;48.200;16.338;2024-03-22T13:46:49;17.20;92.00
40053;DHT22;25758;48.200;16.338;2024-03-22T13:49:15;17.30;91.60
40053;DHT22;25758;48.200;16.338;2024-03-22T13:51:42;17.30;91.90
40053;DHT22;25758;48.200;16.338;2024-03-22T13:56:34;17.30;91.80
40053;DHT22;25758;48.200;16.338;2024-03-22T13:59:00;17.30;91.90
40053;DHT22;25758;48.200;16.338;2024-03-22T14:01:25;17.20;92.10
40053;DHT22;25758;48.200;16.338;2024-03-22T14:03:51;17.20;91.40
40053;DHT22;25758;48.200;16.338;2024-03-22T14:06:16;17.20;91.30
40053;DHT22;25758;48.200;16.338;2024-03-22T14:08:42;17.20;91.40
40053;DHT22;25758;48.200;16.338;2024-03-22T14:11:08;17.20;91.00
40053;DHT22;25758;48.200;16.338;2024-03-22T14:13:33;17.20;91.10
40053;DHT22;25758;48.200;16.338;2024-03-22T14:15:59;17.30;90.50
40053;DHT22;25758;48.200;16.338;2024-03-22T14:20:50;17.40;91.90
40053;DHT22;25758;48.200;16.338;2024-03-22T14:23:16;17.30;91.80
40053;DHT22;25758;48.200;16.338;2024-03-22T14:25:41;17.30;91.10
40053;DHT22;25758;48.200;16.338;2024-03-22T14:28:10;17.30;92.30
40053;DHT22;25758;48.200;16.338;2024-03-22T14:30:35;17.30;90.50
40053;DHT22;25758;48.200;16.338;2024-03-22T14:33:01;17.20;91.30
40053;DHT22;25758;48.200;16.338;2024-03-22T14:35:27;17.20;90.90
40053;DHT22;25758;48.200;16.338;2024-03-22T14:37:52;17.20;91.10
40053;DHT22;25758;48.200;16.338;2024-03-22T14:40:18;17.20;90.10
40053;DHT22;25758;48.200;16.338;2024-03-22T14:42:44;17.20;91.10
40053;DHT22;25758;48.200;16.338;2024-03-22T14:45:09;17.20;90.50
40053;DHT22;25758;48.200;16.338;2024-03-22T14:47:36;17.20;90.50
40053;DHT22;25758;48.200;16.338;2024-03-22T14:50:01;17.20;90.60
40053;DHT22;25758;48.200;16.338;2024-03-22T14:52:27;17.20;89.40
40053;DHT22;25758;48.200;16.338;2024-03-22T14:54:52;17.10;90.00
40053;DHT22;25758;48.200;16.338;2024-03-22T14:59:45;17.10;89.00
40053;DHT22;25758;48.200;16.338;2024-03-22T15:02:13;17.10;88.30
40053;DHT22;25758;48.200;16.338;2024-03-22T15:04:39;17.10;87.90
40053;DHT22;25758;48.200;16.338;2024-03-22T15:07:04;17.00;89.20
40053;DHT22;25758;48.200;16.338;2024-03-22T15:11:57;17.10;86.80
40053;DHT22;25758;48.200;16.338;2024-03-22T15:14:25;17.10;87.20
40053;DHT22;25758;48.200;16.338;2024-03-22T15:16:53;17.00;86.40
40053;DHT22;25758;48.200;16.338;2024-03-22T15:19:18;17.10;86.60
40053;DHT22;25758;48.200;16.338;2024-03-22T15:21:44;17.00;87.90
40053;DHT22;25758;48.200;16.338;2024-03-22T15:24:10;17.10;87.80